Het weer levert geen direct gevaar op.    Er zijn geen waarschuwingen afgegeven.

Regen radar Meer informatie rain snow radar


Bezoek onze andere website:

Template documentation
and downloads

And another site

Forum Leuven-template

EUWEATHER.EU

Verwachtingen Meteociel


U vindt ons ook hier:

Het Weer Aktueel

UK Metoffice

European Weather Network

WeatherCloud

Weather Underground

Benelux Weer Netwerk

AWEKAS

WeatherlinkIP

HAMweather, WeatherForYou, PWS Weather

Wetter.com



METAR rapporten vliegvelden

   
EBAW - Antwerp
Gewijzigd: 07-04-2020 10:50
Helder  
Helder  
   Wind: Oosten 11.1 km/h
Wind: Oosten 11.1 km/h
Temperatuur: 14°C
Dauwpunt: 8°C
Vochtigheid: 67%
Barometer: 1031 hPa
Zicht: meer dan 10 km
Bewolking: Helder
EBAW 070850Z 09006KT 050V140 CAVOK 14/08 Q1031 NOSIG
EBLG - Li├Ęge
Gewijzigd: 07-04-2020 10:50
Helder  
Helder  
   Wind: ONO 11.1 km/h
Wind: ONO 11.1 km/h
Temperatuur: 14°C
Dauwpunt: 9°C
Vochtigheid: 72%
Barometer: 1031 hPa
Zicht: meer dan 10 km
Bewolking: Helder
EBLG 070850Z 07006KT 020V110 CAVOK 14/09 Q1031 NOSIG
EBCV - Mons/Bergen
Gewijzigd: 07-04-2020 10:55
Helder  
Helder  
   Wind: Oosten 11.1 km/h
Wind: Oosten 11.1 km/h
Temperatuur: 14°C
Dauwpunt: 9°C
Vochtigheid: 72%
Barometer: 1031 hPa
Bewolking: Helder
Zicht: meer dan 10 km
Bewolking: Helder
EBCV 070855Z AUTO 10006KT 9999 NCD 14/09 Q1031 BLU
EHBK - Maastricht
Gewijzigd: 07-04-2020 10:55
Gedeeltelijk bewolkt  
Gedeeltelijk bewolkt  
   Wind: ONO 13 km/h
Wind: ONO 13 km/h
Temperatuur: 14°C
Dauwpunt: 10°C
Vochtigheid: 77%
Barometer: 1031 hPa
Bewolking: Gedeeltelijk bewolkt
Zicht: meer dan 10 km
Bewolking: Gedeeltelijk bewolkt
EHBK 070855Z AUTO 06007KT 030V110 9999 NSC 14/10 Q1031 NOSIG
ELLX - Luxemburg
Gewijzigd: 07-04-2020 10:50
Helder  
Helder  
   Wind: ONO 18.5 km/h
Wind: ONO 18.5 km/h
Temperatuur: 15°C
Dauwpunt: 7°C
Vochtigheid: 59%
Barometer: 1030 hPa
Zicht: meer dan 10 km
Bewolking: Helder
ELLX 070850Z 06010KT 030V090 CAVOK 15/07 Q1030 NOSIG
EBOS - Oostende
Gewijzigd: 07-04-2020 10:50
Helder  
Helder  
   Wind: Oosten 9.3 km/h
Wind: Oosten 9.3 km/h
Temperatuur: 13°C
Dauwpunt: 8°C
Vochtigheid: 72%
Barometer: 1031 hPa
Zicht: meer dan 10 km
Bewolking: Helder
EBOS 070850Z 10005KT CAVOK 13/08 Q1031 NOSIG

Script ontwikkeld door  Saratoga-weather.org Aangepast voor de template door  Weerstation Leuven

Apparatuur in gebruik:

Weerstation
Davis VP2

Weerprogramma
Meteobridge

Weercomputer
Asus WL -330N3G

Webleverancier
Onecom

Davis VP2

Meteobridge

Asus WL -330N3G

Onecom